sensor_id;sensor_type;location;lat;lon;timestamp;P1;P2;P0
48153;PMS5003;33942;49.272;14.452;2022-10-13T11:39:49;221;221;
48153;PMS5003;33942;49.272;14.452;2022-10-13T11:42:42;334;332;
48153;PMS5003;33942;49.272;14.452;2022-10-13T11:45:31;303;302;
48153;PMS5003;33942;49.272;14.452;2022-10-13T11:49:27;418;417;
48153;PMS5003;33942;49.272;14.452;2022-10-13T11:52:45;2;2;
48153;PMS5003;33942;49.272;14.452;2022-10-13T11:55:29;4;3;
48153;PMS5003;33942;49.272;14.452;2022-10-13T11:58:07;0;0;
48153;PMS5003;33942;49.272;14.452;2022-10-13T12:00:35;0;0;
48153;PMS5003;33942;49.272;14.452;2022-10-13T12:03:02;1;1;
48153;PMS5003;33942;49.272;14.452;2022-10-13T12:05:29;0;0;
48153;PMS5003;33942;49.272;14.452;2022-10-13T12:07:57;0;0;
48153;PMS5003;33942;49.272;14.452;2022-10-13T12:10:29;0;0;
48153;PMS5003;33942;49.272;14.452;2022-10-13T12:12:58;0;0;
48153;PMS5003;33942;49.272;14.452;2022-10-13T12:15:29;3;1;
48153;PMS5003;33942;49.272;14.452;2022-10-13T12:17:59;1;1;
48153;PMS5003;33942;49.272;14.452;2022-10-13T12:20:26;0;0;
48153;PMS5003;33942;49.272;14.452;2022-10-13T12:22:56;0;0;
48153;PMS5003;33942;49.272;14.452;2022-10-13T12:25:23;0;0;
48153;PMS5003;33942;49.272;14.452;2022-10-13T12:27:54;0;0;
48153;PMS5003;33942;49.272;14.452;2022-10-13T12:30:25;2;2;
48153;PMS5003;33942;49.272;14.452;2022-10-13T12:32:54;1;1;
48153;PMS5003;33942;49.272;14.452;2022-10-13T12:35:24;2;2;
48153;PMS5003;33942;49.272;14.452;2022-10-13T12:37:53;0;0;
48153;PMS5003;33942;49.272;14.452;2022-10-13T12:40:21;0;0;
48153;PMS5003;33942;49.272;14.452;2022-10-13T12:42:49;0;0;
48153;PMS5003;33942;49.272;14.452;2022-10-13T12:45:17;2;1;
48153;PMS5003;33942;49.272;14.452;2022-10-13T12:47:47;0;0;
48153;PMS5003;33942;49.272;14.452;2022-10-13T12:50:19;5;3;
48153;PMS5003;33942;49.272;14.452;2022-10-13T12:53:05;0;0;
48153;PMS5003;33942;49.272;14.452;2022-10-13T12:55:45;0;0;
48153;PMS5003;33942;49.272;14.452;2022-10-13T12:58:17;0;0;
48153;PMS5003;33942;49.272;14.452;2022-10-13T13:01:05;0;0;
48153;PMS5003;33942;49.272;14.452;2022-10-13T13:03:34;0;0;
48153;PMS5003;33942;49.272;14.452;2022-10-13T13:06:09;0;0;
48153;PMS5003;33942;49.272;14.452;2022-10-13T13:09:05;0;0;
48153;PMS5003;33942;49.272;14.452;2022-10-13T13:11:46;0;0;
48153;PMS5003;33942;49.272;14.452;2022-10-13T13:14:21;0;0;
48153;PMS5003;33942;49.272;14.452;2022-10-13T13:17:08;0;0;
48153;PMS5003;33942;49.272;14.452;2022-10-13T13:19:39;0;0;
48153;PMS5003;33942;49.272;14.452;2022-10-13T13:22:07;0;0;
48153;PMS5003;33942;49.272;14.452;2022-10-13T13:24:35;0;0;
48153;PMS5003;33942;49.272;14.452;2022-10-13T13:27:09;0;0;
48153;PMS5003;33942;49.272;14.452;2022-10-13T13:29:42;0;0;
48153;PMS5003;33942;49.272;14.452;2022-10-13T13:32:10;0;0;
48153;PMS5003;33942;49.272;14.452;2022-10-13T13:34:39;0;0;
48153;PMS5003;33942;49.272;14.452;2022-10-13T13:37:08;0;0;
48153;PMS5003;33942;49.272;14.452;2022-10-13T13:39:40;0;0;
48153;PMS5003;33942;49.272;14.452;2022-10-13T13:42:10;0;0;
48153;PMS5003;33942;49.272;14.452;2022-10-13T13:44:39;0;0;
48153;PMS5003;33942;49.272;14.452;2022-10-13T13:47:10;0;0;
48153;PMS5003;33942;49.272;14.452;2022-10-13T13:49:40;0;0;
48153;PMS5003;33942;49.272;14.452;2022-10-13T13:52:08;0;0;
48153;PMS5003;33942;49.272;14.452;2022-10-13T13:54:35;0;0;
48153;PMS5003;33942;49.272;14.452;2022-10-13T13:57:02;0;0;
48153;PMS5003;33942;49.272;14.452;2022-10-13T13:59:30;0;0;
48153;PMS5003;33942;49.272;14.452;2022-10-13T14:01:57;0;0;
48153;PMS5003;33942;49.272;14.452;2022-10-13T14:04:25;0;0;
48153;PMS5003;33942;49.272;14.452;2022-10-13T14:06:52;0;0;
48153;PMS5003;33942;49.272;14.452;2022-10-13T14:09:20;0;0;
48153;PMS5003;33942;49.272;14.452;2022-10-13T14:11:47;0;0;
48153;PMS5003;33942;49.272;14.452;2022-10-13T14:14:14;0;0;
48153;PMS5003;33942;49.272;14.452;2022-10-13T14:16:41;0;0;
48153;PMS5003;33942;49.272;14.452;2022-10-13T14:19:09;0;0;
48153;PMS5003;33942;49.272;14.452;2022-10-13T14:21:36;0;0;
48153;PMS5003;33942;49.272;14.452;2022-10-13T14:24:04;0;0;
48153;PMS5003;33942;49.272;14.452;2022-10-13T14:26:32;0;0;
48153;PMS5003;33942;49.272;14.452;2022-10-13T14:28:59;0;0;
48153;PMS5003;33942;49.272;14.452;2022-10-13T14:31:27;0;0;
48153;PMS5003;33942;49.272;14.452;2022-10-13T14:33:54;0;0;
48153;PMS5003;33942;49.272;14.452;2022-10-13T14:36:21;0;0;
48153;PMS5003;33942;49.272;14.452;2022-10-13T14:38:49;0;0;
48153;PMS5003;33942;49.272;14.452;2022-10-13T14:41:16;0;0;
48153;PMS5003;33942;49.272;14.452;2022-10-13T14:43:44;0;0;
48153;PMS5003;33942;49.272;14.452;2022-10-13T14:46:11;0;0;
48153;PMS5003;33942;49.272;14.452;2022-10-13T14:48:38;0;0;
48153;PMS5003;33942;49.272;14.452;2022-10-13T14:51:06;0;0;
48153;PMS5003;33942;49.272;14.452;2022-10-13T14:53:35;0;0;
48153;PMS5003;33942;49.272;14.452;2022-10-13T14:56:10;0;0;
48153;PMS5003;33942;49.272;14.452;2022-10-13T14:58:41;0;0;
48153;PMS5003;33942;49.272;14.452;2022-10-13T15:01:08;0;0;
48153;PMS5003;33942;49.272;14.452;2022-10-13T15:03:36;0;0;
48153;PMS5003;33942;49.272;14.452;2022-10-13T15:06:03;0;0;
48153;PMS5003;33942;49.272;14.452;2022-10-13T15:08:30;0;0;
48153;PMS5003;33942;49.272;14.452;2022-10-13T15:10:58;0;0;
48153;PMS5003;33942;49.272;14.452;2022-10-13T15:13:25;0;0;
48153;PMS5003;33942;49.272;14.452;2022-10-13T15:15:53;0;0;
48153;PMS5003;33942;49.272;14.452;2022-10-13T15:18:20;0;0;
48153;PMS5003;33942;49.272;14.452;2022-10-13T15:20:47;0;0;
48153;PMS5003;33942;49.272;14.452;2022-10-13T15:23:15;0;0;
48153;PMS5003;33942;49.272;14.452;2022-10-13T15:25:48;0;0;
48153;PMS5003;33942;49.272;14.452;2022-10-13T15:28:15;0;0;
48153;PMS5003;33942;49.272;14.452;2022-10-13T15:30:43;0;0;
48153;PMS5003;33942;49.272;14.452;2022-10-13T15:33:10;0;0;
48153;PMS5003;33942;49.272;14.452;2022-10-13T15:35:38;0;0;
48153;PMS5003;33942;49.272;14.452;2022-10-13T15:38:05;0;0;
48153;PMS5003;33942;49.272;14.452;2022-10-13T15:40:33;0;0;
48153;PMS5003;33942;49.272;14.452;2022-10-13T15:43:03;0;0;
48153;PMS5003;33942;49.272;14.452;2022-10-13T15:45:32;0;0;
48153;PMS5003;33942;49.272;14.452;2022-10-13T15:48:00;0;0;
48153;PMS5003;33942;49.272;14.452;2022-10-13T15:50:27;0;0;
48153;PMS5003;33942;49.272;14.452;2022-10-13T15:52:55;0;0;
48153;PMS5003;33942;49.272;14.452;2022-10-13T15:55:22;0;0;
48153;PMS5003;33942;49.272;14.452;2022-10-13T15:57:50;0;0;
48153;PMS5003;33942;49.272;14.452;2022-10-13T16:00:17;0;0;
